Time;durP1;ratioP1;P1;durP2;ratioP2;P2;SDS_P1;SDS_P2;PMS_P1;PMS_P2;Temp;Humidity;BMP_temperature;BMP_pressure;BME280_temperature;BME280_humidity;BME280_pressure;Samples;Min_cycle;Max_cycle;Signal;HPM_P1;HPM_P2
2024/04/08 00:01:32;;;;;;;;;;;;;;;16.08;100.00;95533.25;4995089;28;19929;-72
2024/04/08 00:03:59;;;;;;;;;;;;;;;16.02;100.00;95526.38;4991169;28;19933;-75
2024/04/08 00:06:25;;;;;;;;;;;;;;;16.00;100.00;95523.19;4999147;28;19929;-73
2024/04/08 00:08:51;;;;;;;;;;;;;;;15.99;100.00;95520.81;4998275;28;19929;-73
2024/04/08 00:11:17;;;;;;;;;;;;;;;16.04;100.00;95524.19;4997717;28;19933;-74
2024/04/08 00:13:43;;;;;;;;;;;;;;;16.03;100.00;95521.78;4999028;28;19929;-73
2024/04/08 00:16:09;;;;;;;;;;;;;;;16.02;100.00;95510.13;4996402;28;19929;-73
2024/04/08 00:18:35;;;;;;;;;;;;;;;16.01;100.00;95511.22;4980929;28;20400;-72
2024/04/08 00:21:03;;;;;;;;;;;;;;;15.99;100.00;95508.06;4996727;28;19952;-73
2024/04/08 00:23:29;;;;;;;;;;;;;;;15.97;100.00;95504.84;4996483;28;19929;-72
2024/04/08 00:25:55;;;;;;;;;;;;;;;15.99;100.00;95505.34;4999339;28;20344;-73
2024/04/08 00:28:21;;;;;;;;;;;;;;;15.96;100.00;95497.84;4995919;28;20517;-73
2024/04/08 00:30:47;;;;;;;;;;;;;;;15.94;100.00;95500.06;4999531;28;19929;-72
2024/04/08 00:33:13;;;;;;;;;;;;;;;16.01;100.00;95492.25;4996985;28;20376;-73
2024/04/08 00:35:40;;;;;;;;;;;;;;;16.04;100.00;95497.06;4982775;28;20159;-72
2024/04/08 00:38:06;;;;;;;;;;;;;;;16.02;100.00;95493.84;4996330;28;20210;-73
2024/04/08 00:40:36;;;;;;;;;;;;;;;16.09;100.00;95494.19;4999333;28;19929;-72
2024/04/08 00:43:03;;;;;;;;;;;;;;;16.09;100.00;95488.78;5000255;28;19972;-73
2024/04/08 00:45:29;;;;;;;;;;;;;;;16.00;100.00;95501.50;4997762;28;20076;-74
2024/04/08 00:47:56;;;;;;;;;;;;;;;15.96;100.00;95504.06;4997668;28;19933;-73
2024/04/08 00:50:22;;;;;;;;;;;;;;;15.96;100.00;95495.13;4999085;28;19929;-72
2024/04/08 00:52:50;;;;;;;;;;;;;;;15.98;100.00;95486.69;4998108;28;20540;-73
2024/04/08 00:55:16;;;;;;;;;;;;;;;15.95;100.00;95482.69;4996506;28;19933;-73
2024/04/08 00:57:43;;;;;;;;;;;;;;;15.84;100.00;95476.75;4997808;28;19929;-73
2024/04/08 01:00:09;;;;;;;;;;;;;;;15.94;100.00;95481.06;4995196;28;20399;-72
2024/04/08 01:02:35;;;;;;;;;;;;;;;15.95;100.00;95488.91;4981776;28;19933;-73
2024/04/08 01:05:02;;;;;;;;;;;;;;;15.94;100.00;95483.78;4992499;28;20489;-72
2024/04/08 01:07:28;;;;;;;;;;;;;;;16.08;100.00;95484.47;4997716;28;19929;-73
2024/04/08 01:09:54;;;;;;;;;;;;;;;16.10;100.00;95479.53;4996583;28;20375;-73
2024/04/08 01:12:20;;;;;;;;;;;;;;;16.18;100.00;95470.63;4995357;28;20265;-72
2024/04/08 01:14:47;;;;;;;;;;;;;;;16.14;100.00;95469.66;5003041;28;20023;-73
2024/04/08 01:17:16;;;;;;;;;;;;;;;16.04;100.00;95471.84;4983333;28;19928;-73
2024/04/08 01:19:44;;;;;;;;;;;;;;;16.05;100.00;95462.63;4983015;28;20402;-72
2024/04/08 01:22:11;;;;;;;;;;;;;;;15.96;100.00;95470.72;4995038;28;19929;-72
2024/04/08 01:24:37;;;;;;;;;;;;;;;15.97;100.00;95464.19;4995961;28;19929;-73
2024/04/08 01:27:03;;;;;;;;;;;;;;;15.92;100.00;95462.44;4994704;28;19929;-73
2024/04/08 01:29:29;;;;;;;;;;;;;;;15.83;100.00;95471.66;4995213;28;20007;-74
2024/04/08 01:31:55;;;;;;;;;;;;;;;15.86;100.00;95479.94;4997129;28;20093;-73
2024/04/08 01:34:21;;;;;;;;;;;;;;;15.83;100.00;95477.06;4997202;28;20513;-73
2024/04/08 01:36:48;;;;;;;;;;;;;;;15.81;100.00;95471.16;4999251;28;19929;-73
2024/04/08 01:39:14;;;;;;;;;;;;;;;15.79;100.00;95466.03;4998031;28;19956;-72
2024/04/08 01:41:40;;;;;;;;;;;;;;;15.77;100.00;95467.50;4994383;28;19929;-74
2024/04/08 01:44:07;;;;;;;;;;;;;;;15.75;100.00;95464.28;4997197;28;19957;-74
2024/04/08 01:46:33;;;;;;;;;;;;;;;15.66;100.00;95460.75;4996554;28;19952;-73
2024/04/08 01:48:59;;;;;;;;;;;;;;;15.55;100.00;95452.91;4998250;28;19940;-72
2024/04/08 01:51:25;;;;;;;;;;;;;;;15.54;100.00;95450.50;4993257;28;19956;-72
2024/04/08 01:53:51;;;;;;;;;;;;;;;15.57;100.00;95450.66;4996786;28;19929;-73
2024/04/08 01:56:17;;;;;;;;;;;;;;;15.54;100.00;95451.31;4992727;28;20744;-72
2024/04/08 01:58:43;;;;;;;;;;;;;;;15.53;100.00;95444.28;4991310;28;19930;-73
2024/04/08 02:01:10;;;;;;;;;;;;;;;15.49;100.00;95437.84;4991918;28;20363;-74
2024/04/08 02:03:36;;;;;;;;;;;;;;;15.46;100.00;95433.06;4994766;28;20415;-72
2024/04/08 02:06:02;;;;;;;;;;;;;;;15.45;100.00;95434.19;4998186;28;20367;-73
2024/04/08 02:08:28;;;;;;;;;;;;;;;15.47;100.00;95429.25;4995195;28;19929;-73
2024/04/08 02:10:54;;;;;;;;;;;;;;;15.48;100.00;95433.56;4996774;28;19929;-73
2024/04/08 02:13:20;;;;;;;;;;;;;;;15.48;100.00;95433.56;4993146;28;20251;-73
2024/04/08 02:15:47;;;;;;;;;;;;;;;15.48;100.00;95432.78;4995060;28;19929;-73
2024/04/08 02:18:13;;;;;;;;;;;;;;;15.47;100.00;95429.25;4993136;28;20315;-72
2024/04/08 02:20:39;;;;;;;;;;;;;;;15.46;100.00;95430.38;4998297;28;20307;-72
2024/04/08 02:23:06;;;;;;;;;;;;;;;15.44;100.00;95424.44;4998291;28;19934;-73
2024/04/08 02:25:39;;;;;;;;;;;;;;;15.42;100.00;95421.25;4996397;28;19930;-73
2024/04/08 02:28:05;;;;;;;;;;;;;;;15.41;100.00;95421.59;4994646;28;19929;-73
2024/04/08 02:30:36;;;;;;;;;;;;;;;15.39;100.00;95421.09;5000700;28;20303;-73
2024/04/08 02:33:02;;;;;;;;;;;;;;;15.38;100.00;95431.13;4997757;28;19930;-73
2024/04/08 02:35:32;;;;;;;;;;;;;;;15.36;100.00;95427.94;4994007;28;20103;-72
2024/04/08 02:37:59;;;;;;;;;;;;;;;15.35;100.00;95434.44;5001893;28;19952;-73
2024/04/08 02:40:25;;;;;;;;;;;;;;;15.31;100.00;95435.41;4994428;28;20359;-72
2024/04/08 02:42:51;;;;;;;;;;;;;;;15.31;100.00;95429.97;4980161;28;19929;-73
2024/04/08 02:45:17;;;;;;;;;;;;;;;15.31;100.00;95440.81;4995572;28;19937;-73
2024/04/08 02:47:43;;;;;;;;;;;;;;;15.27;100.00;95437.13;4993424;28;19929;-74
2024/04/08 02:50:09;;;;;;;;;;;;;;;15.24;100.00;95435.03;4994282;28;19929;-72
2024/04/08 02:52:36;;;;;;;;;;;;;;;15.19;100.00;95447.59;4993815;28;19929;-74
2024/04/08 02:57:53;;;;;;;;;;;;;;;15.18;100.00;95450.63;4961257;28;19930;-72
2024/04/08 03:00:19;;;;;;;;;;;;;;;15.13;100.00;95466.97;4966479;28;19929;-72
2024/04/08 03:02:45;;;;;;;;;;;;;;;15.03;100.00;95456.44;4957763;28;19930;-73
2024/04/08 03:05:11;;;;;;;;;;;;;;;14.96;100.00;95450.66;4957424;28;19930;-72
2024/04/08 03:07:38;;;;;;;;;;;;;;;14.85;100.00;95454.72;4974895;28;20035;-72
2024/04/08 03:10:04;;;;;;;;;;;;;;;14.84;100.00;95456.63;4958527;28;20346;-73
2024/04/08 03:12:30;;;;;;;;;;;;;;;14.78;100.00;95455.94;4964644;28;19934;-72
2024/04/08 03:14:57;;;;;;;;;;;;;;;14.61;100.00;95438.81;4965804;28;19929;-73
2024/04/08 03:17:23;;;;;;;;;;;;;;;14.44;100.00;95436.75;4959488;28;19936;-73
2024/04/08 03:19:57;;;;;;;;;;;;;;;14.54;100.00;95441.16;4966374;28;19937;-72
2024/04/08 03:22:25;;;;;;;;;;;;;;;14.64;100.00;95441.69;4963239;28;19930;-74
2024/04/08 03:24:51;;;;;;;;;;;;;;;14.69;100.00;95419.91;4956410;28;19934;-73
2024/04/08 03:27:17;;;;;;;;;;;;;;;14.67;100.00;95438.38;4965654;28;19937;-73
2024/04/08 03:29:43;;;;;;;;;;;;;;;14.67;100.00;95445.69;4966309;28;20450;-73
2024/04/08 03:32:10;;;;;;;;;;;;;;;14.57;100.00;95435.91;4965280;28;19929;-72
2024/04/08 03:34:36;;;;;;;;;;;;;;;14.50;100.00;95442.84;4972739;28;19930;-73
2024/04/08 03:37:03;;;;;;;;;;;;;;;14.53;100.00;95448.47;4966434;28;19936;-73
2024/04/08 03:39:29;;;;;;;;;;;;;;;14.56;100.00;95437.00;4966601;28;19930;-72
2024/04/08 03:41:56;;;;;;;;;;;;;;;14.54;100.00;95444.63;4964926;28;20017;-72
2024/04/08 03:44:22;;;;;;;;;;;;;;;14.56;100.00;95437.00;4955939;28;19936;-73
2024/04/08 03:46:49;;;;;;;;;;;;;;;14.57;100.00;95441.31;4965098;28;19930;-73
2024/04/08 03:49:15;;;;;;;;;;;;;;;14.59;100.00;95452.63;4976499;28;19930;-72
2024/04/08 03:51:41;;;;;;;;;;;;;;;14.60;100.00;95448.03;4959206;28;19929;-73
2024/04/08 03:54:07;;;;;;;;;;;;;;;14.57;100.00;95443.22;4956944;28;19937;-73
2024/04/08 03:56:33;;;;;;;;;;;;;;;14.54;100.00;95458.16;4956321;28;19930;-72
2024/04/08 03:59:00;;;;;;;;;;;;;;;14.52;100.00;95457.69;4962500;28;19930;-73
2024/04/08 04:01:27;;;;;;;;;;;;;;;14.52;100.00;95449.56;4962871;28;19930;-73
2024/04/08 04:03:54;;;;;;;;;;;;;;;14.50;100.00;95448.25;4953385;28;19930;-72
2024/04/08 04:06:20;;;;;;;;;;;;;;;14.43;100.00;95447.88;4945928;28;19939;-73
2024/04/08 04:08:48;;;;;;;;;;;;;;;14.43;100.00;95451.38;4962559;28;20014;-73
2024/04/08 04:11:14;;;;;;;;;;;;;;;14.44;100.00;95434.06;4945451;28;19930;-73
2024/04/08 04:13:40;;;;;;;;;;;;;;;14.42;100.00;95428.16;4955660;28;20142;-73
2024/04/08 04:16:06;;;;;;;;;;;;;;;14.42;100.00;95436.25;4946028;28;19937;-74
2024/04/08 04:18:32;;;;;;;;;;;;;;;14.41;100.00;95431.97;4945723;28;19937;-73
2024/04/08 04:20:59;;;;;;;;;;;;;;;14.41;100.00;95435.47;4955048;28;19934;-74
2024/04/08 04:23:25;;;;;;;;;;;;;;;14.40;100.00;95427.66;4946023;28;20308;-72
2024/04/08 04:25:52;;;;;;;;;;;;;;;14.39;100.00;95432.25;4939242;28;19934;-73
2024/04/08 04:28:18;;;;;;;;;;;;;;;14.34;100.00;95445.06;4961910;28;19930;-72
2024/04/08 04:30:53;;;;;;;;;;;;;;;14.22;100.00;95444.81;4945796;28;19930;-73
2024/04/08 04:33:19;;;;;;;;;;;;;;;14.19;100.00;95442.72;4947529;28;19930;-72
2024/04/08 04:35:55;;;;;;;;;;;;;;;14.16;100.00;95437.94;4961177;28;19937;-73
2024/04/08 04:38:22;;;;;;;;;;;;;;;14.25;100.00;95442.28;4945623;28;19937;-73
2024/04/08 04:40:58;;;;;;;;;;;;;;;14.26;100.00;95443.09;4946183;28;19941;-72
2024/04/08 04:43:24;;;;;;;;;;;;;;;14.27;100.00;95444.69;4942177;28;19930;-72
2024/04/08 04:45:50;;;;;;;;;;;;;;;14.25;100.00;95446.91;4945861;28;19934;-72
2024/04/08 04:48:16;;;;;;;;;;;;;;;14.22;100.00;95442.91;4961190;28;19930;-73
2024/04/08 04:50:42;;;;;;;;;;;;;;;14.24;100.00;95445.31;4945754;28;19966;-72
2024/04/08 04:53:09;;;;;;;;;;;;;;;14.23;100.00;95443.72;4945824;28;19934;-72
2024/04/08 04:55:36;;;;;;;;;;;;;;;14.23;100.00;95441.81;4961428;28;19945;-72
2024/04/08 04:58:02;;;;;;;;;;;;;;;14.24;100.00;95445.31;4955239;28;19929;-72
2024/04/08 05:00:31;;;;;;;;;;;;;;;14.24;100.00;95442.63;4962693;28;19953;-74
2024/04/08 05:03:00;;;;;;;;;;;;;;;14.24;100.00;95442.63;4962135;28;19930;-73
2024/04/08 05:05:27;;;;;;;;;;;;;;;14.22;100.00;95447.53;4957158;28;19930;-73
2024/04/08 05:07:54;;;;;;;;;;;;;;;14.22;100.00;95450.22;4956405;28;20610;-73
2024/04/08 05:10:21;;;;;;;;;;;;;;;14.20;100.00;95455.13;4956666;28;19949;-72
2024/04/08 05:12:47;;;;;;;;;;;;;;;14.22;100.00;95452.94;4955523;28;19930;-72
2024/04/08 05:15:13;;;;;;;;;;;;;;;14.23;100.00;95459.94;4957630;28;19930;-73
2024/04/08 05:17:39;;;;;;;;;;;;;;;14.22;100.00;95458.34;4961852;28;19930;-73
2024/04/08 05:20:09;;;;;;;;;;;;;;;14.23;100.00;95451.81;4954622;28;19929;-73
2024/04/08 05:22:36;;;;;;;;;;;;;;;14.24;100.00;95456.13;4956220;28;19930;-73
2024/04/08 05:25:04;;;;;;;;;;;;;;;14.25;100.00;95463.13;4972688;28;19930;-72
2024/04/08 05:27:30;;;;;;;;;;;;;;;14.25;100.00;95457.72;4962929;28;19937;-72
2024/04/08 05:29:56;;;;;;;;;;;;;;;14.26;100.00;95460.13;4962926;28;19938;-72
2024/04/08 05:32:22;;;;;;;;;;;;;;;14.29;100.00;95464.94;4956327;28;19929;-72
2024/04/08 05:34:49;;;;;;;;;;;;;;;14.31;100.00;95472.75;4962539;28;20415;-71
2024/04/08 05:37:15;;;;;;;;;;;;;;;14.31;100.00;95473.53;4957130;28;19937;-73
2024/04/08 05:39:41;;;;;;;;;;;;;;;14.33;100.00;95470.50;4955258;28;19933;-72
2024/04/08 05:42:07;;;;;;;;;;;;;;;14.34;100.00;95480.22;4962778;28;19957;-72
2024/04/08 05:44:33;;;;;;;;;;;;;;;14.33;100.00;95486.72;4972950;28;19937;-72
2024/04/08 05:46:59;;;;;;;;;;;;;;;14.35;100.00;95484.53;4963542;28;19941;-73
2024/04/08 05:49:26;;;;;;;;;;;;;;;14.38;100.00;95489.38;4960052;28;19937;-73
2024/04/08 05:51:52;;;;;;;;;;;;;;;14.40;100.00;95495.25;4959041;28;19929;-73
2024/04/08 05:54:18;;;;;;;;;;;;;;;14.41;100.00;95502.25;4966173;28;20456;-73
2024/04/08 05:56:44;;;;;;;;;;;;;;;14.46;100.00;95495.97;4966945;28;19930;-72
2024/04/08 05:59:10;;;;;;;;;;;;;;;14.48;100.00;95502.66;4966383;28;19933;-73
2024/04/08 06:01:37;;;;;;;;;;;;;;;14.42;100.00;95503.88;4967199;28;19934;-72
2024/04/08 06:04:03;;;;;;;;;;;;;;;14.51;100.00;95496.63;4957816;28;19958;-72
2024/04/08 06:06:29;;;;;;;;;;;;;;;14.59;100.00;95487.81;4966612;28;19937;-73
2024/04/08 06:09:08;;;;;;;;;;;;;;;14.64;100.00;95484.16;4967159;28;20380;-73
2024/04/08 06:11:34;;;;;;;;;;;;;;;14.70;100.00;95483.75;4965538;28;19930;-73
2024/04/08 06:14:00;;;;;;;;;;;;;;;14.76;100.00;95473.59;4957964;28;19937;-73
2024/04/08 06:16:26;;;;;;;;;;;;;;;14.83;100.00;95468.53;4960322;28;19925;-73
2024/04/08 06:18:52;;;;;;;;;;;;;;;14.85;100.00;95470.94;4959482;28;19930;-76
2024/04/08 06:21:18;;;;;;;;;;;;;;;14.87;100.00;95476.88;4966832;28;19937;-78
2024/04/08 06:23:44;;;;;;;;;;;;;;;14.89;100.00;95467.34;4965779;28;19953;-75
2024/04/08 06:26:11;;;;;;;;;;;;;;;14.94;100.00;95464.50;4961464;28;20383;-80
2024/04/08 06:28:37;;;;;;;;;;;;;;;14.98;100.00;95479.00;4965735;28;19930;-76
2024/04/08 06:31:03;;;;;;;;;;;;;;;15.02;100.00;95476.50;4960169;28;19930;-76
2024/04/08 06:33:29;;;;;;;;;;;;;;;15.05;100.00;95482.06;4966673;28;19945;-76
2024/04/08 06:35:55;;;;;;;;;;;;;;;15.13;100.00;95473.19;4953799;28;19930;-78
2024/04/08 06:38:21;;;;;;;;;;;;;;;15.27;100.00;95475.06;4961074;28;19941;-77
2024/04/08 06:40:48;;;;;;;;;;;;;;;15.35;100.00;95477.78;4965070;28;19956;-74
2024/04/08 06:43:14;;;;;;;;;;;;;;;15.43;100.00;95471.59;4962097;28;19957;-71
2024/04/08 06:45:40;;;;;;;;;;;;;;;15.48;100.00;95467.97;4966996;28;20396;-73
2024/04/08 06:48:06;;;;;;;;;;;;;;;15.64;100.00;95462.94;4964920;28;19930;-73
2024/04/08 06:50:32;;;;;;;;;;;;;;;15.76;100.00;95463.19;4958435;28;19937;-72
2024/04/08 06:52:58;;;;;;;;;;;;;;;15.84;100.00;95465.91;4967956;28;19934;-73
2024/04/08 06:55:24;;;;;;;;;;;;;;;16.00;100.00;95468.97;4966614;28;19937;-73
2024/04/08 06:57:51;;;;;;;;;;;;;;;16.11;100.00;95467.56;4948928;28;19942;-73
2024/04/08 07:00:18;;;;;;;;;;;;;;;16.42;100.00;95469.38;4965604;28;19937;-73
2024/04/08 07:02:44;;;;;;;;;;;;;;;16.60;100.00;95477.22;4966095;28;19930;-73
2024/04/08 07:05:10;;;;;;;;;;;;;;;16.68;100.00;95489.19;4964692;28;20875;-73
2024/04/08 07:07:37;;;;;;;;;;;;;;;16.76;100.00;95493.84;4964800;28;19930;-73
2024/04/08 07:10:03;;;;;;;;;;;;;;;16.82;100.00;95489.03;4974362;28;20237;-75
2024/04/08 07:12:29;;;;;;;;;;;;;;;16.65;100.00;95490.66;4958950;28;20365;-74
2024/04/08 07:14:56;;;;;;;;;;;;;;;16.71;100.00;95483.16;4964433;28;19930;-73
2024/04/08 07:17:22;;;;;;;;;;;;;;;16.94;100.00;95487.28;4958360;28;19933;-73
2024/04/08 07:19:48;;;;;;;;;;;;;;;17.01;100.00;95475.94;4965369;28;19937;-74
2024/04/08 07:22:14;;;;;;;;;;;;;;;17.16;100.00;95472.72;4957410;28;19937;-73
2024/04/08 07:24:40;;;;;;;;;;;;;;;17.17;100.00;95485.16;4964215;28;19930;-73
2024/04/08 07:27:10;;;;;;;;;;;;;;;17.21;100.00;95486.13;4959018;28;19953;-73
2024/04/08 07:29:36;;;;;;;;;;;;;;;17.39;100.00;95484.94;4964474;28;19930;-73
2024/04/08 07:32:02;;;;;;;;;;;;;;;17.44;100.00;95486.72;4963755;28;19950;-74
2024/04/08 07:34:28;;;;;;;;;;;;;;;17.61;100.00;95481.22;4963278;28;19937;-74
2024/04/08 07:36:55;;;;;;;;;;;;;;;17.71;100.00;95489.03;4941392;28;19930;-73
2024/04/08 07:39:21;;;;;;;;;;;;;;;17.82;100.00;95490.28;4955606;28;20295;-73
2024/04/08 07:41:47;;;;;;;;;;;;;;;17.79;100.00;95484.69;4964861;28;20396;-73
2024/04/08 07:44:13;;;;;;;;;;;;;;;18.02;100.00;95483.31;4964584;28;19930;-73
2024/04/08 07:46:39;;;;;;;;;;;;;;;18.22;100.00;95481.75;4963696;28;19930;-73
2024/04/08 07:49:05;;;;;;;;;;;;;;;18.24;100.00;95474.06;4963784;28;19930;-74
2024/04/08 07:51:33;;;;;;;;;;;;;;;18.46;100.00;95481.91;4964671;28;19945;-73
2024/04/08 07:54:00;;;;;;;;;;;;;;;18.61;100.00;95494.19;4964566;28;20109;-74
2024/04/08 07:56:26;;;;;;;;;;;;;;;18.78;100.00;95499.47;4964494;28;19925;-73
2024/04/08 07:58:52;;;;;;;;;;;;;;;18.93;100.00;95496.16;4964240;28;19934;-73
2024/04/08 08:01:19;;;;;;;;;;;;;;;18.91;100.00;95492.19;4964844;28;20332;-73
2024/04/08 08:03:45;;;;;;;;;;;;;;;18.99;100.00;95491.31;4964797;28;20388;-74
2024/04/08 08:06:11;;;;;;;;;;;;;;;19.02;100.00;95494.16;4965008;28;19936;-74
2024/04/08 08:08:37;;;;;;;;;;;;;;;18.99;100.00;95496.75;4964610;28;19933;-74
2024/04/08 08:11:04;;;;;;;;;;;;;;;18.93;100.00;95487.97;4963982;28;20254;-72
2024/04/08 08:13:31;;;;;;;;;;;;;;;19.31;100.00;95479.59;4965042;28;19929;-73
2024/04/08 08:15:58;;;;;;;;;;;;;;;19.27;100.00;95484.16;4964708;28;19937;-73
2024/04/08 08:18:24;;;;;;;;;;;;;;;19.79;100.00;95484.41;4941256;28;19937;-74
2024/04/08 08:20:51;;;;;;;;;;;;;;;19.81;100.00;95487.56;4973493;28;19930;-73
2024/04/08 08:23:17;;;;;;;;;;;;;;;19.87;100.00;95484.66;4958174;28;19930;-72
2024/04/08 08:25:43;;;;;;;;;;;;;;;19.80;100.00;95480.53;4965706;28;19964;-72
2024/04/08 08:28:09;;;;;;;;;;;;;;;20.12;100.00;95478.84;4965052;28;19929;-74
2024/04/08 08:30:36;;;;;;;;;;;;;;;20.24;100.00;95482.72;4960478;28;20545;-70
2024/04/08 08:33:02;;;;;;;;;;;;;;;20.51;100.00;95479.28;4964701;28;19937;-71
2024/04/08 08:35:30;;;;;;;;;;;;;;;20.48;100.00;95488.16;4965355;28;20617;-75
2024/04/08 08:37:57;;;;;;;;;;;;;;;20.34;100.00;95487.72;4966298;28;20991;-71
2024/04/08 08:40:23;;;;;;;;;;;;;;;20.79;100.00;95491.06;4975082;28;19933;-72
2024/04/08 08:42:50;;;;;;;;;;;;;;;20.90;100.00;95486.69;4965108;28;20308;-73
2024/04/08 08:46:57;;;;;;;;;;;;;;;21.14;100.00;95490.47;5403871;26;19928;-72
2024/04/08 08:49:27;;;;;;;;;;;;;;;21.16;100.00;95490.94;5377871;26;20270;-72
2024/04/08 08:51:55;;;;;;;;;;;;;;;21.01;100.00;95492.47;5381015;26;19936;-72
2024/04/08 08:54:22;;;;;;;;;;;;;;;21.07;100.00;95488.34;5379736;26;19929;-69
2024/04/08 08:56:50;;;;;;;;;;;;;;;20.91;100.00;95491.00;5378565;26;19936;-72
2024/04/08 08:59:17;;;;;;;;;;;;;;;20.90;100.00;95483.97;5381474;26;19930;-71
2024/04/08 09:01:44;;;;;;;;;;;;;;;21.57;100.00;95489.72;5379680;26;19929;-70
2024/04/08 09:04:14;;;;;;;;;;;;;;;21.70;100.00;95478.34;5382191;26;19936;-72
2024/04/08 09:06:54;;;;;;;;;;;;;;;21.77;100.00;95485.19;5375881;26;19930;-72
2024/04/08 09:09:21;;;;;;;;;;;;;;;21.66;100.00;95480.22;5379417;26;19930;-73
2024/04/08 09:11:48;;;;;;;;;;;;;;;21.30;100.00;95486.69;5383708;26;20088;-72
2024/04/08 09:14:16;;;;;;;;;;;;;;;21.58;100.00;95491.31;5381137;26;20225;-72
2024/04/08 09:16:48;;;;;;;;;;;;;;;21.45;100.00;95487.06;5377120;26;19936;-72
2024/04/08 09:19:15;;;;;;;;;;;;;;;21.69;100.00;95497.88;5379506;26;19930;-70
2024/04/08 09:21:42;;;;;;;;;;;;;;;21.58;100.00;95496.78;5383263;26;19929;-71
2024/04/08 09:24:10;;;;;;;;;;;;;;;21.85;100.00;95498.66;5374237;26;20321;-74
2024/04/08 09:26:39;;;;;;;;;;;;;;;21.54;100.00;95507.66;5374169;26;20536;-73
2024/04/08 09:29:06;;;;;;;;;;;;;;;;;;5380213;26;19930;-70
2024/04/08 09:31:33;;;;;;;;;;;;;;;21.93;100.00;95507.84;5381457;26;19929;-73
2024/04/08 09:34:01;;;;;;;;;;;;;;;22.05;100.00;95505.09;5374951;26;19930;-72
2024/04/08 09:36:29;;;;;;;;;;;;;;;22.08;100.00;95502.41;5384226;26;19930;-70
2024/04/08 09:38:59;;;;;;;;;;;;;;;22.48;100.00;95501.41;5377058;26;19930;-70
2024/04/08 09:41:27;;;;;;;;;;;;;;;22.53;100.00;95503.88;5378371;26;20359;-72
2024/04/08 09:43:55;;;;;;;;;;;;;;;22.60;100.00;95495.00;5374747;26;20373;-73
2024/04/08 09:46:23;;;;;;;;;;;;;;;22.64;100.00;95501.38;5375542;26;19936;-70
2024/04/08 09:48:52;;;;;;;;;;;;;;;22.82;100.00;95497.09;5380382;26;19929;-70
2024/04/08 09:51:19;;;;;;;;;;;;;;;23.05;100.00;95487.03;5382830;26;19929;-71
2024/04/08 09:53:47;;;;;;;;;;;;;;;22.58;100.00;95494.56;5374312;26;20397;-70
2024/04/08 09:56:15;;;;;;;;;;;;;;;22.59;100.00;95501.63;5376360;26;20032;-71
2024/04/08 09:58:52;;;;;;;;;;;;;;;22.70;100.00;95497.22;5365685;26;19940;-70
2024/04/08 10:01:21;;;;;;;;;;;;;;;22.70;100.00;95495.25;5351473;26;19936;-71
2024/04/08 10:03:50;;;;;;;;;;;;;;;22.53;100.00;95492.91;5365461;26;19929;-70
2024/04/08 10:06:18;;;;;;;;;;;;;;;22.48;100.00;95488.50;5364626;26;19936;-71
2024/04/08 10:08:47;;;;;;;;;;;;;;;22.28;100.00;95478.63;5355920;26;19936;-72
2024/04/08 10:11:15;;;;;;;;;;;;;;;22.78;100.00;95466.09;5365990;26;19963;-71
2024/04/08 10:13:46;;;;;;;;;;;;;;;22.92;100.00;95469.13;5363913;26;19930;-73
2024/04/08 10:16:14;;;;;;;;;;;;;;;22.65;100.00;95473.59;5362206;26;20389;-71
2024/04/08 10:18:51;;;;;;;;;;;;;;;23.05;100.00;95462.34;5362879;26;19930;-72
2024/04/08 10:21:18;;;;;;;;;;;;;;;22.87;100.00;95461.19;5358597;26;20330;-72
2024/04/08 10:23:46;;;;;;;;;;;;;;;23.46;100.00;95454.50;5365534;26;19930;-71
2024/04/08 10:26:15;;;;;;;;;;;;;;;23.50;100.00;95453.47;5360591;26;19937;-73
2024/04/08 10:28:43;;;;;;;;;;;;;;;23.61;100.00;95437.97;5365766;26;19930;-72
2024/04/08 10:31:13;;;;;;;;;;;;;;;23.79;100.00;95440.25;5364180;26;19929;-72
2024/04/08 10:33:41;;;;;;;;;;;;;;;23.18;100.00;95447.34;5360688;26;19929;-71
2024/04/08 10:36:08;;;;;;;;;;;;;;;23.27;100.00;95447.13;5362368;26;19929;-72
2024/04/08 10:38:36;;;;;;;;;;;;;;;23.58;100.00;95438.72;5356227;26;19930;-70
2024/04/08 10:41:04;;;;;;;;;;;;;;;23.65;100.00;95438.06;5364003;26;20235;-72
2024/04/08 10:43:32;;;;;;;;;;;;;;;23.67;100.00;95441.19;5363876;26;19936;-70
2024/04/08 10:46:03;;;;;;;;;;;;;;;23.45;100.00;95450.19;5364193;26;20508;-72
2024/04/08 10:48:31;;;;;;;;;;;;;;;23.15;100.00;95447.28;5360408;26;19930;-71
2024/04/08 10:50:59;;;;;;;;;;;;;;;23.42;100.00;95450.91;5358523;26;19933;-71
2024/04/08 10:53:26;;;;;;;;;;;;;;;23.16;100.00;95444.16;5363757;26;19936;-72
2024/04/08 10:55:53;;;;;;;;;;;;;;;23.37;100.00;95443.00;5360284;26;20079;-72
2024/04/08 10:58:21;;;;;;;;;;;;;;;23.96;100.00;95429.53;5365068;26;20539;-71
2024/04/08 11:00:48;;;;;;;;;;;;;;;23.73;100.00;95445.25;5365329;26;19930;-71
2024/04/08 11:03:16;;;;;;;;;;;;;;;23.56;100.00;95442.97;5360991;26;19964;-73
2024/04/08 11:05:43;;;;;;;;;;;;;;;23.54;100.00;95431.56;5363568;26;19936;-72
2024/04/08 11:08:12;;;;;;;;;;;;;;;23.76;100.00;95433.53;5361176;26;20266;-71
2024/04/08 11:10:43;;;;;;;;;;;;;;;23.95;100.00;95435.41;5362510;26;19930;-71
2024/04/08 11:13:11;;;;;;;;;;;;;;;23.99;100.00;95434.31;5362706;26;19936;-73
2024/04/08 11:15:40;;;;;;;;;;;;;;;24.04;100.00;95428.50;5359371;26;19936;-72
2024/04/08 11:18:08;;;;;;;;;;;;;;;23.84;100.00;95437.97;5359772;26;19936;-73
2024/04/08 11:20:36;;;;;;;;;;;;;;;23.55;100.00;95438.63;5357266;26;19930;-72
2024/04/08 11:23:03;;;;;;;;;;;;;;;23.61;100.00;95442.66;5363459;26;19929;-73
2024/04/08 11:25:31;;;;;;;;;;;;;;;23.72;100.00;95438.16;5361595;26;19929;-72
2024/04/08 11:27:59;;;;;;;;;;;;;;;23.90;100.00;95439.25;5359451;26;19929;-72
2024/04/08 11:30:26;;;;;;;;;;;;;;;24.11;100.00;95438.78;5358032;26;19929;-72
2024/04/08 11:32:54;;;;;;;;;;;;;;;23.88;100.00;95446.28;5358406;26;20360;-71
2024/04/08 11:35:25;;;;;;;;;;;;;;;23.70;100.00;95439.69;5357995;26;19930;-71
2024/04/08 11:37:52;;;;;;;;;;;;;;;24.11;100.00;95443.53;5351960;26;19937;-71
2024/04/08 11:40:19;;;;;;;;;;;;;;;23.84;100.00;95445.41;5357738;26;19930;-73
2024/04/08 11:42:47;;;;;;;;;;;;;;;24.12;100.00;95434.88;5360443;26;19933;-71
2024/04/08 11:45:14;;;;;;;;;;;;;;;24.17;100.00;95436.56;5359684;26;19930;-73
2024/04/08 11:47:41;;;;;;;;;;;;;;;24.39;100.00;95427.50;5359182;26;20392;-72
2024/04/08 11:50:09;;;;;;;;;;;;;;;24.19;100.00;95435.00;5352347;26;19936;-71
2024/04/08 11:52:36;;;;;;;;;;;;;;;24.40;100.00;95429.84;5357013;26;19936;-73
2024/04/08 11:55:03;;;;;;;;;;;;;;;24.08;100.00;95428.56;5355425;26;19930;-71
2024/04/08 11:57:33;;;;;;;;;;;;;;;24.22;100.00;95423.31;5358941;26;20743;-72
2024/04/08 12:00:01;;;;;;;;;;;;;;;24.80;100.00;95426.47;5361093;26;19929;-70
2024/04/08 12:02:37;;;;;;;;;;;;;;;24.20;100.00;95438.56;5360283;26;20472;-72
2024/04/08 12:05:04;;;;;;;;;;;;;;;24.00;100.00;95422.16;5362726;26;20462;-73
2024/04/08 12:07:32;;;;;;;;;;;;;;;24.40;100.00;95420.84;5359514;26;19929;-72
2024/04/08 12:09:59;;;;;;;;;;;;;;;24.38;100.00;95425.91;5357755;26;19935;-74
2024/04/08 12:12:26;;;;;;;;;;;;;;;24.08;100.00;95423.06;5362347;26;19930;-71
2024/04/08 12:14:54;;;;;;;;;;;;;;;24.05;100.00;95424.59;5360928;26;19930;-70
2024/04/08 12:17:21;;;;;;;;;;;;;;;24.65;100.00;95416.47;5363130;26;19955;-70
2024/04/08 12:19:49;;;;;;;;;;;;;;;24.77;100.00;95404.44;5361260;26;20271;-72
2024/04/08 12:22:17;;;;;;;;;;;;;;;24.56;100.00;95421.44;5356923;26;19930;-71
2024/04/08 12:24:45;;;;;;;;;;;;;;;24.94;100.00;95414.09;5363163;26;19929;-72
2024/04/08 12:27:12;;;;;;;;;;;;;;;25.02;100.00;95410.28;5355035;26;20356;-72
2024/04/08 12:29:40;;;;;;;;;;;;;;;24.78;100.00;95406.81;5358926;26;20424;-72
2024/04/08 12:32:08;;;;;;;;;;;;;;;24.73;100.00;95406.34;5357848;26;19930;-71
2024/04/08 12:34:35;;;;;;;;;;;;;;;24.48;100.00;95406.00;5361218;26;19933;-70
2024/04/08 12:37:02;;;;;;;;;;;;;;;24.41;100.00;95403.16;5356653;26;20348;-71
2024/04/08 12:39:30;;;;;;;;;;;;;;;24.69;100.00;95398.06;5359960;26;20367;-71
2024/04/08 12:41:57;;;;;;;;;;;;;;;24.99;100.00;95400.00;5362078;26;19930;-72